createdAt,value
2023-04-15T00:01:28.329Z,97226.27
2023-04-15T00:03:56.156Z,97233.00
2023-04-15T00:06:23.440Z,97236.30
2023-04-15T00:08:51.065Z,97239.31
2023-04-15T00:11:18.621Z,97238.73
2023-04-15T00:13:45.975Z,97239.16
2023-04-15T00:16:13.275Z,97236.10
2023-04-15T00:18:40.402Z,97242.05
2023-04-15T00:21:07.560Z,97249.58
2023-04-15T00:23:34.490Z,97251.96
2023-04-15T00:26:01.917Z,97261.23
2023-04-15T00:28:28.993Z,97263.66
2023-04-15T00:30:56.003Z,97266.54
2023-04-15T00:33:22.996Z,97266.67
2023-04-15T00:35:50.033Z,97269.11
2023-04-15T00:38:16.950Z,97268.52
2023-04-15T00:40:44.200Z,97266.41
2023-04-15T00:43:11.270Z,97269.52
2023-04-15T00:45:38.842Z,97273.55
2023-04-15T00:48:06.371Z,97271.34
2023-04-15T00:50:34.033Z,97271.27
2023-04-15T00:53:01.481Z,97274.02
2023-04-15T00:55:28.754Z,97278.54
2023-04-15T00:57:57.982Z,97281.54
2023-04-15T01:00:25.476Z,97285.09
2023-04-15T01:02:52.733Z,97289.65
2023-04-15T01:05:19.966Z,97296.20
2023-04-15T01:07:48.954Z,97299.12
2023-04-15T01:10:16.252Z,97302.85
2023-04-15T01:12:43.657Z,97307.66
2023-04-15T01:15:11.396Z,97297.98
2023-04-15T01:17:39.624Z,97290.73
2023-04-15T01:20:10.304Z,97288.52
2023-04-15T01:22:37.379Z,97285.32
2023-04-15T01:25:13.681Z,97282.30
2023-04-15T01:27:42.671Z,97289.05
2023-04-15T01:30:10.911Z,97292.86
2023-04-15T01:32:38.506Z,97296.20
2023-04-15T01:35:06.040Z,97298.09
2023-04-15T01:37:33.466Z,97299.09
2023-04-15T01:40:00.522Z,97302.70
2023-04-15T01:42:28.200Z,97303.45
2023-04-15T01:44:55.127Z,97303.38
2023-04-15T01:47:22.164Z,97303.89
2023-04-15T01:49:49.206Z,97310.23
2023-04-15T01:52:16.059Z,97312.80
2023-04-15T01:54:43.014Z,97309.63
2023-04-15T01:57:10.341Z,97313.80
2023-04-15T01:59:37.599Z,97314.95
2023-04-15T02:02:05.928Z,97312.89
2023-04-15T02:04:33.018Z,97310.45
2023-04-15T02:07:00.287Z,97315.42
2023-04-15T02:09:27.112Z,97317.13
2023-04-15T02:11:54.685Z,97318.50
2023-04-15T02:14:21.935Z,97322.48
2023-04-15T02:16:48.808Z,97325.58
2023-04-15T02:19:15.805Z,97329.45
2023-04-15T02:21:42.655Z,97336.36
2023-04-15T02:24:09.708Z,97339.44
2023-04-15T02:26:36.523Z,97339.85
2023-04-15T02:29:04.694Z,97342.98
2023-04-15T02:31:34.387Z,97347.17
2023-04-15T02:34:03.300Z,97346.98
2023-04-15T02:36:32.014Z,97351.67
2023-04-15T02:38:59.256Z,97351.27
2023-04-15T02:41:28.660Z,97357.27
2023-04-15T02:43:55.525Z,97358.81
2023-04-15T02:46:23.329Z,97360.84
2023-04-15T02:48:51.237Z,97362.30
2023-04-15T02:51:20.598Z,97361.61
2023-04-15T02:53:48.893Z,97367.30
2023-04-15T02:56:17.557Z,97373.79
2023-04-15T02:58:45.527Z,97372.11
2023-04-15T03:01:12.478Z,97372.10
2023-04-15T03:03:39.371Z,97375.44
2023-04-15T03:06:07.268Z,97375.94
2023-04-15T03:08:34.229Z,97374.23
2023-04-15T03:11:02.906Z,97372.05
2023-04-15T03:13:29.730Z,97372.94
2023-04-15T03:15:56.638Z,97373.50
2023-04-15T03:18:23.972Z,97374.52
2023-04-15T03:20:50.977Z,97380.19
2023-04-15T03:23:18.022Z,97378.70
2023-04-15T03:25:45.581Z,97381.47
2023-04-15T03:28:12.731Z,97388.10
2023-04-15T03:30:39.668Z,97389.57
2023-04-15T03:33:06.502Z,97394.33
2023-04-15T03:35:33.348Z,97390.25
2023-04-15T03:38:00.189Z,97391.40
2023-04-15T03:40:27.457Z,97394.98
2023-04-15T03:42:54.388Z,97400.80
2023-04-15T03:45:21.524Z,97407.41
2023-04-15T03:47:48.392Z,97407.09
2023-04-15T03:50:15.952Z,97411.69
2023-04-15T03:52:42.781Z,97409.64
2023-04-15T03:55:10.216Z,97407.11
2023-04-15T03:57:39.465Z,97406.24
2023-04-15T04:00:12.257Z,97401.83
2023-04-15T04:02:39.372Z,97405.56
2023-04-15T04:05:06.700Z,97407.23
2023-04-15T04:07:33.763Z,97403.95
2023-04-15T04:10:00.690Z,97403.77
2023-04-15T04:12:27.630Z,97406.55
2023-04-15T04:14:54.558Z,97408.14
2023-04-15T04:17:21.442Z,97411.51
2023-04-15T04:19:48.348Z,97411.15
2023-04-15T04:22:15.194Z,97412.58
2023-04-15T04:24:42.149Z,97416.22
2023-04-15T04:27:09.078Z,97416.09
2023-04-15T04:29:36.419Z,97414.16
2023-04-15T04:32:03.331Z,97416.52
2023-04-15T04:34:30.518Z,97422.14
2023-04-15T04:36:57.362Z,97423.73
2023-04-15T04:39:24.295Z,97427.38
2023-04-15T04:41:52.740Z,97431.77
2023-04-15T04:44:19.612Z,97437.43
2023-04-15T04:46:46.566Z,97439.79
2023-04-15T04:49:13.367Z,97442.07
2023-04-15T04:51:40.246Z,97440.77
2023-04-15T04:54:07.499Z,97437.78
2023-04-15T04:56:35.052Z,97436.25
2023-04-15T04:59:02.368Z,97436.04
2023-04-15T05:01:29.641Z,97443.52
2023-04-15T05:03:56.821Z,97447.36
2023-04-15T05:06:23.949Z,97447.13
2023-04-15T05:08:50.909Z,97444.18
2023-04-15T05:11:18.030Z,97443.80
2023-04-15T05:13:45.314Z,97442.24
2023-04-15T05:16:12.819Z,97441.24
2023-04-15T05:18:41.275Z,97438.46
2023-04-15T05:21:08.585Z,97442.98
2023-04-15T05:23:35.828Z,97447.05
2023-04-15T05:26:02.989Z,97449.17
2023-04-15T05:28:30.229Z,97454.26
2023-04-15T05:30:57.612Z,97457.02
2023-04-15T05:33:24.756Z,97463.65
2023-04-15T05:35:52.175Z,97459.89
2023-04-15T05:38:19.543Z,97459.14
2023-04-15T05:40:46.985Z,97463.17
2023-04-15T05:43:13.934Z,97462.78
2023-04-15T05:45:40.770Z,97463.96
2023-04-15T05:48:08.019Z,97464.45
2023-04-15T05:50:34.976Z,97463.98
2023-04-15T05:53:02.775Z,97461.87
2023-04-15T05:55:29.772Z,97459.15
2023-04-15T05:57:56.919Z,97462.17
2023-04-15T06:00:23.750Z,97464.95
2023-04-15T06:02:51.062Z,97471.45
2023-04-15T06:05:18.573Z,97475.93
2023-04-15T06:07:47.330Z,97482.89
2023-04-15T06:10:15.832Z,97483.08
2023-04-15T06:12:42.657Z,97485.89
2023-04-15T06:15:13.194Z,97486.95
2023-04-15T06:17:40.332Z,97489.50
2023-04-15T06:20:08.950Z,97490.52
2023-04-15T06:22:38.546Z,97495.42
2023-04-15T06:25:08.406Z,97490.15
2023-04-15T06:27:35.280Z,97491.70
2023-04-15T06:30:02.231Z,97488.83
2023-04-15T06:32:29.210Z,97491.76
2023-04-15T06:34:57.029Z,97493.30
2023-04-15T06:37:26.382Z,97494.64
2023-04-15T06:39:55.225Z,97492.72
2023-04-15T06:42:24.201Z,97497.15
2023-04-15T06:44:51.508Z,97496.23
2023-04-15T06:47:18.652Z,97499.91
2023-04-15T06:49:45.746Z,97502.73
2023-04-15T06:52:13.408Z,97502.00
2023-04-15T06:54:41.822Z,97500.09
2023-04-15T06:57:12.321Z,97497.11
2023-04-15T06:59:42.120Z,97491.63
2023-04-15T07:02:12.810Z,97493.48
2023-04-15T07:04:40.956Z,97491.52
2023-04-15T07:07:08.407Z,97493.98
2023-04-15T07:09:35.645Z,97501.34
2023-04-15T07:12:02.676Z,97503.24
2023-04-15T07:14:30.041Z,97506.42
2023-04-15T07:16:58.052Z,97508.98
2023-04-15T07:19:25.027Z,97514.17
2023-04-15T07:21:52.021Z,97516.52
2023-04-15T07:24:20.459Z,97520.02
2023-04-15T07:26:47.599Z,97520.10
2023-04-15T07:29:14.886Z,97514.84
2023-04-15T07:31:42.611Z,97517.98
2023-04-15T07:34:09.568Z,97515.65
2023-04-15T07:36:37.288Z,97516.27
2023-04-15T07:39:05.013Z,97516.80
2023-04-15T07:41:32.327Z,97517.27
2023-04-15T07:43:59.910Z,97515.58
2023-04-15T07:46:27.817Z,97518.40
2023-04-15T07:48:54.798Z,97513.39
2023-04-15T07:51:21.945Z,97513.84
2023-04-15T07:53:50.816Z,97518.34
2023-04-15T07:56:18.412Z,97517.59
2023-04-15T07:58:45.338Z,97512.91
2023-04-15T08:01:12.988Z,97519.07
2023-04-15T08:03:40.147Z,97517.27
2023-04-15T08:06:07.399Z,97522.38
2023-04-15T08:08:34.441Z,97518.38
2023-04-15T08:11:01.693Z,97516.45
2023-04-15T08:13:29.170Z,97527.91
2023-04-15T08:16:19.172Z,97524.86
2023-04-15T08:18:50.087Z,97525.14
2023-04-15T08:21:19.010Z,97524.67
2023-04-15T08:23:47.936Z,97526.70
2023-04-15T08:26:14.886Z,97527.90
2023-04-15T08:28:43.193Z,97525.84
2023-04-15T08:31:10.865Z,97526.02
2023-04-15T08:33:37.892Z,97527.46
2023-04-15T08:36:06.337Z,97525.59
2023-04-15T08:38:33.807Z,97521.71
2023-04-15T08:41:07.736Z,97521.23
2023-04-15T08:43:37.148Z,97524.59
2023-04-15T08:46:05.831Z,97523.76
2023-04-15T08:48:39.501Z,97521.23
2023-04-15T08:51:08.071Z,97521.35
2023-04-15T08:53:35.836Z,97517.81
2023-04-15T08:56:06.186Z,97517.83
2023-04-15T08:58:34.048Z,97521.55
2023-04-15T09:01:02.116Z,97525.52
2023-04-15T09:03:29.519Z,97523.45
2023-04-15T09:05:57.820Z,97525.28
2023-04-15T09:08:25.117Z,97524.65
2023-04-15T09:10:52.513Z,97519.41
2023-04-15T09:13:19.688Z,97525.52
2023-04-15T09:15:47.025Z,97525.91
2023-04-15T09:18:27.091Z,97529.00
2023-04-15T09:20:54.312Z,97527.45
2023-04-15T09:23:21.492Z,97525.70
2023-04-15T09:25:49.977Z,97523.61
2023-04-15T09:28:26.026Z,97524.74
2023-04-15T09:30:58.026Z,97525.81
2023-04-15T09:33:27.461Z,97525.55
2023-04-15T09:36:05.853Z,97519.72
2023-04-15T09:38:34.244Z,97514.11
2023-04-15T09:41:01.532Z,97517.64
2023-04-15T09:43:42.171Z,97516.85
2023-04-15T09:46:09.010Z,97518.00
2023-04-15T09:48:37.206Z,97522.73
2023-04-15T09:51:04.532Z,97526.66
2023-04-15T09:53:34.501Z,97528.41
2023-04-15T09:56:02.854Z,97527.01
2023-04-15T09:58:32.057Z,97530.23
2023-04-15T10:01:00.730Z,97526.07
2023-04-15T10:03:34.828Z,97529.02
2023-04-15T10:06:05.878Z,97524.65
2023-04-15T10:08:35.180Z,97523.04
2023-04-15T10:11:02.803Z,97524.23
2023-04-15T10:13:35.812Z,97526.11
2023-04-15T10:16:15.977Z,97525.92
2023-04-15T10:18:48.544Z,97521.63
2023-04-15T10:21:18.996Z,97526.29
2023-04-15T10:23:47.955Z,97532.85
2023-04-15T10:26:17.792Z,97526.70
2023-04-15T10:28:47.577Z,97526.75
2023-04-15T10:31:16.237Z,97526.59
2023-04-15T10:33:46.288Z,97527.30
2023-04-15T10:36:14.451Z,97525.23
2023-04-15T10:38:46.965Z,97523.23
2023-04-15T10:41:14.953Z,97524.44
2023-04-15T10:43:51.807Z,97522.05
2023-04-15T10:46:44.508Z,97522.95
2023-04-15T10:49:17.365Z,97521.36
2023-04-15T10:51:53.684Z,97522.89
2023-04-15T10:54:27.059Z,97524.41
2023-04-15T10:57:09.220Z,97525.20
2023-04-15T11:00:05.498Z,97524.18
2023-04-15T11:02:49.241Z,97527.02
2023-04-15T11:05:18.405Z,97529.14
2023-04-15T11:07:47.130Z,97524.86
2023-04-15T11:10:14.007Z,97530.23
2023-04-15T11:12:42.288Z,97534.33
2023-04-15T11:15:35.216Z,97535.77
2023-04-15T11:18:25.534Z,97533.02
2023-04-15T11:21:00.758Z,97536.14
2023-04-15T11:23:29.362Z,97537.14
2023-04-15T11:25:58.251Z,97537.30
2023-04-15T11:28:30.191Z,97537.52
2023-04-15T11:30:58.253Z,97543.48
2023-04-15T11:33:26.332Z,97544.48
2023-04-15T11:35:55.393Z,97542.61
2023-04-15T11:38:22.876Z,97542.39
2023-04-15T11:40:52.080Z,97543.80
2023-04-15T11:43:23.924Z,97549.42
2023-04-15T11:45:53.911Z,97548.96
2023-04-15T11:48:29.282Z,97549.05
2023-04-15T11:50:58.250Z,97547.36
2023-04-15T11:53:36.083Z,97545.96
2023-04-15T11:56:03.138Z,97548.02
2023-04-15T11:58:30.560Z,97550.39
2023-04-15T12:01:00.420Z,97542.17
2023-04-15T12:03:32.457Z,97539.92
2023-04-15T12:06:19.531Z,97543.48
2023-04-15T12:08:55.952Z,97545.17
2023-04-15T12:11:32.619Z,97545.02
2023-04-15T12:14:08.639Z,97542.05
2023-04-15T12:16:49.121Z,97541.26
2023-04-15T12:19:23.242Z,97541.05
2023-04-15T12:21:51.246Z,97545.58
2023-04-15T12:24:22.555Z,97536.88
2023-04-15T12:26:55.328Z,97538.90
2023-04-15T12:29:27.092Z,97536.80
2023-04-15T12:31:56.287Z,97529.64
2023-04-15T12:34:29.725Z,97530.15
2023-04-15T12:36:58.233Z,97537.63
2023-04-15T12:39:30.932Z,97535.91
2023-04-15T12:41:59.098Z,97534.98
2023-04-15T12:44:27.539Z,97540.15
2023-04-15T12:46:55.170Z,97539.31
2023-04-15T12:49:23.450Z,97532.66
2023-04-15T12:51:53.211Z,97533.60
2023-04-15T12:54:21.088Z,97531.56
2023-04-15T12:56:50.163Z,97529.74
2023-04-15T12:59:21.507Z,97530.94
2023-04-15T13:01:49.330Z,97531.41
2023-04-15T13:04:17.598Z,97531.08
2023-04-15T13:06:44.814Z,97533.04
2023-04-15T13:09:11.873Z,97529.15
2023-04-15T13:11:38.923Z,97531.86
2023-04-15T13:14:07.934Z,97536.93
2023-04-15T13:16:35.382Z,97539.01
2023-04-15T13:19:04.526Z,97540.42
2023-04-15T13:21:35.992Z,97540.99
2023-04-15T13:24:05.259Z,97542.23
2023-04-15T13:26:32.556Z,97540.77
2023-04-15T13:29:00.171Z,97548.39
2023-04-15T13:31:27.688Z,97549.55
2023-04-15T13:33:55.239Z,97550.80
2023-04-15T13:36:22.375Z,97549.98
2023-04-15T13:38:51.173Z,97548.20
2023-04-15T13:41:18.994Z,97548.34
2023-04-15T13:43:45.931Z,97548.39
2023-04-15T13:46:13.176Z,97547.52
2023-04-15T13:48:40.547Z,97547.80
2023-04-15T13:51:07.719Z,97546.83
2023-04-15T13:53:38.877Z,97551.20
2023-04-15T13:56:09.474Z,97553.23
2023-04-15T13:58:38.035Z,97552.36
2023-04-15T14:01:07.291Z,97556.23
2023-04-15T14:03:38.301Z,97558.52
2023-04-15T14:06:06.683Z,97558.91
2023-04-15T14:08:34.301Z,97564.83
2023-04-15T14:11:01.557Z,97564.30
2023-04-15T14:13:28.510Z,97565.24
2023-04-15T14:15:57.108Z,97563.50
2023-04-15T14:18:24.230Z,97572.10
2023-04-15T14:20:51.163Z,97574.86
2023-04-15T14:23:18.356Z,97574.63
2023-04-15T14:25:53.040Z,97580.13
2023-04-15T14:28:20.372Z,97579.58
2023-04-15T14:30:47.665Z,97589.77
2023-04-15T14:33:14.580Z,97591.27
2023-04-15T14:35:42.286Z,97592.27
2023-04-15T14:38:11.645Z,97594.80
2023-04-15T14:40:39.356Z,97598.73
2023-04-15T14:43:06.623Z,97602.67
2023-04-15T14:45:33.638Z,97608.67
2023-04-15T14:48:00.871Z,97610.68
2023-04-15T14:50:28.507Z,97615.48
2023-04-15T14:52:56.450Z,97616.84
2023-04-15T14:55:23.756Z,97624.70
2023-04-15T14:57:51.646Z,97626.52
2023-04-15T15:00:19.808Z,97631.38
2023-04-15T15:02:50.404Z,97634.41
2023-04-15T15:05:18.482Z,97638.40
2023-04-15T15:07:45.773Z,97641.66
2023-04-15T15:10:12.967Z,97644.47
2023-04-15T15:12:40.336Z,97651.90
2023-04-15T15:15:19.329Z,97659.45
2023-04-15T15:17:55.942Z,97666.10
2023-04-15T15:20:24.792Z,97673.58
2023-04-15T15:22:52.455Z,97680.20
2023-04-15T15:25:19.851Z,97687.71
2023-04-15T15:27:47.570Z,97689.83
2023-04-15T15:30:14.738Z,97693.69
2023-04-15T15:32:43.080Z,97700.58
2023-04-15T15:35:11.629Z,97715.33
2023-04-15T15:37:38.843Z,97721.16
2023-04-15T15:40:07.100Z,97728.17
2023-04-15T15:42:34.824Z,97737.83
2023-04-15T15:45:04.483Z,97739.19
2023-04-15T15:47:31.554Z,97746.11
2023-04-15T15:49:58.778Z,97743.15
2023-04-15T15:52:26.012Z,97741.63
2023-04-15T15:54:53.268Z,97733.70
2023-04-15T15:57:20.404Z,97719.81
2023-04-15T15:59:47.767Z,97708.02
2023-04-15T16:02:15.097Z,97703.83
2023-04-15T16:04:43.571Z,97704.79
2023-04-15T16:07:15.951Z,97704.53
2023-04-15T16:09:44.034Z,97696.40
2023-04-15T16:12:11.176Z,97693.31
2023-04-15T16:14:38.313Z,97697.55
2023-04-15T16:17:05.051Z,97698.71
2023-04-15T16:19:31.944Z,97706.63
2023-04-15T16:22:01.571Z,97709.69
2023-04-15T16:24:29.613Z,97712.77
2023-04-15T16:26:59.821Z,97716.09
2023-04-15T16:29:27.048Z,97718.38
2023-04-15T16:31:56.204Z,97729.69
2023-04-15T16:34:23.856Z,97731.30
2023-04-15T16:36:51.243Z,97729.55
2023-04-15T16:39:18.405Z,97735.03
2023-04-15T16:41:46.164Z,97742.69
2023-04-15T16:44:13.400Z,97752.66
2023-04-15T16:46:41.121Z,97759.93
2023-04-15T16:49:08.560Z,97765.59
2023-04-15T16:51:35.878Z,97774.52
2023-04-15T16:54:03.271Z,97786.64
2023-04-15T16:56:30.272Z,97794.25
2023-04-15T16:58:57.413Z,97801.58
2023-04-15T17:01:24.688Z,97803.35
2023-04-15T17:03:54.030Z,97803.73
2023-04-15T17:06:23.394Z,97802.88
2023-04-15T17:08:50.755Z,97803.30
2023-04-15T17:11:17.754Z,97804.39
2023-04-15T17:13:44.807Z,97802.95
2023-04-15T17:16:12.109Z,97801.50
2023-04-15T17:18:39.233Z,97800.06
2023-04-15T17:21:06.453Z,97805.23
2023-04-15T17:23:33.369Z,97812.88
2023-04-15T17:26:00.265Z,97815.95
2023-04-15T17:28:27.996Z,97819.54
2023-04-15T17:30:55.415Z,97822.96
2023-04-15T17:33:55.708Z,97825.52
2023-04-15T17:36:09.628Z,97828.33
2023-04-15T17:38:36.483Z,97829.88
2023-04-15T17:41:03.909Z,97827.56
2023-04-15T17:43:32.389Z,97833.13
2023-04-15T17:45:59.528Z,97838.90
2023-04-15T17:48:26.907Z,97841.39
2023-04-15T17:50:53.896Z,97845.70
2023-04-15T17:53:20.874Z,97851.40
2023-04-15T17:55:47.935Z,97860.52
2023-04-15T17:58:14.866Z,97863.04
2023-04-15T18:00:42.048Z,97866.40
2023-04-15T18:03:09.217Z,97862.27
2023-04-15T18:05:36.315Z,97864.68
2023-04-15T18:08:03.456Z,97866.43
2023-04-15T18:10:30.397Z,97873.33
2023-04-15T18:12:57.647Z,97875.96
2023-04-15T18:15:24.798Z,97879.20
2023-04-15T18:17:52.049Z,97882.93
2023-04-15T18:20:19.394Z,97883.89
2023-04-15T18:22:46.705Z,97886.11
2023-04-15T18:25:13.897Z,97887.05
2023-04-15T18:27:41.077Z,97891.66
2023-04-15T18:30:10.316Z,97899.95
2023-04-15T18:32:38.077Z,97897.13
2023-04-15T18:35:06.577Z,97900.77
2023-04-15T18:37:33.778Z,97905.63
2023-04-15T18:40:01.581Z,97908.66
2023-04-15T18:42:28.642Z,97915.23
2023-04-15T18:44:55.686Z,97919.14
2023-04-15T18:47:23.831Z,97922.79
2023-04-15T18:49:52.540Z,97921.60
2023-04-15T18:52:19.616Z,97924.69
2023-04-15T18:54:46.853Z,97928.27
2023-04-15T18:57:14.095Z,97926.52
2023-04-15T18:59:47.523Z,97928.45
2023-04-15T19:02:14.688Z,97930.08
2023-04-15T19:04:41.818Z,97935.85
2023-04-15T19:07:10.055Z,97940.08
2023-04-15T19:09:37.411Z,97944.27
2023-04-15T19:12:04.462Z,97945.22
2023-04-15T19:14:31.614Z,97948.75
2023-04-15T19:16:59.084Z,97947.13
2023-04-15T19:19:26.825Z,97953.23
2023-04-15T19:21:54.606Z,97956.13
2023-04-15T19:24:22.064Z,97951.44
2023-04-15T19:26:51.540Z,97950.02
2023-04-15T19:29:18.842Z,97943.16
2023-04-15T19:31:46.006Z,97944.80
2023-04-15T19:34:13.533Z,97945.22
2023-04-15T19:36:41.321Z,97946.06
2023-04-15T19:39:09.230Z,97944.73
2023-04-15T19:41:36.563Z,97949.20
2023-04-15T19:44:05.073Z,97951.04
2023-04-15T19:46:32.678Z,97955.66
2023-04-15T19:49:00.261Z,97961.08
2023-04-15T19:51:28.722Z,97962.51
2023-04-15T19:53:57.031Z,97966.75
2023-04-15T19:56:24.643Z,97966.91
2023-04-15T19:58:53.156Z,97967.77
2023-04-15T20:01:21.015Z,97967.59
2023-04-15T20:03:48.455Z,97968.84
2023-04-15T20:06:16.275Z,97975.45
2023-04-15T20:08:43.287Z,97980.98
2023-04-15T20:11:10.599Z,97982.92
2023-04-15T20:13:37.593Z,97984.85
2023-04-15T20:16:08.006Z,97997.23
2023-04-15T20:18:35.079Z,97996.01
2023-04-15T20:21:02.111Z,97996.33
2023-04-15T20:23:29.140Z,97997.50
2023-04-15T20:25:56.402Z,97997.83
2023-04-15T20:28:26.332Z,98003.39
2023-04-15T20:30:54.016Z,98009.60
2023-04-15T20:33:22.632Z,98009.23
2023-04-15T20:35:49.569Z,98011.45
2023-04-15T20:38:16.838Z,98014.90
2023-04-15T20:40:43.917Z,98019.52
2023-04-15T20:43:10.765Z,98023.52
2023-04-15T20:45:39.255Z,98026.10
2023-04-15T20:48:06.698Z,98026.08
2023-04-15T20:50:33.627Z,98026.70
2023-04-15T20:53:00.719Z,98027.19
2023-04-15T20:55:28.992Z,98033.58
2023-04-15T20:57:59.174Z,98039.05
2023-04-15T21:00:26.359Z,98041.10
2023-04-15T21:02:53.418Z,98045.13
2023-04-15T21:05:20.444Z,98045.98
2023-04-15T21:07:47.346Z,98051.54
2023-04-15T21:10:14.211Z,98056.12
2023-04-15T21:12:41.446Z,98058.65
2023-04-15T21:15:09.367Z,98066.03
2023-04-15T21:17:36.220Z,98069.58
2023-04-15T21:20:03.641Z,98072.33
2023-04-15T21:22:30.465Z,98079.41
2023-04-15T21:24:57.654Z,98078.38
2023-04-15T21:27:26.316Z,98082.27
2023-04-15T21:29:53.167Z,98078.17
2023-04-15T21:32:20.001Z,98082.20
2023-04-15T21:34:46.972Z,98083.24
2023-04-15T21:37:13.773Z,98078.45
2023-04-15T21:39:40.884Z,98080.17
2023-04-15T21:42:07.847Z,98081.40
2023-04-15T21:44:34.752Z,98083.96
2023-04-15T21:47:02.322Z,98080.46
2023-04-15T21:49:29.618Z,98084.73
2023-04-15T21:52:01.331Z,98092.45
2023-04-15T21:54:28.716Z,98092.36
2023-04-15T21:56:55.524Z,98097.66
2023-04-15T21:59:22.267Z,98101.54
2023-04-15T22:01:49.305Z,98097.52
2023-04-15T22:04:16.699Z,98103.63
2023-04-15T22:06:43.671Z,98107.28
2023-04-15T22:09:16.414Z,98107.55
2023-04-15T22:11:43.624Z,98106.51
2023-04-15T22:14:10.951Z,98106.59
2023-04-15T22:16:38.274Z,98107.86
2023-04-15T22:19:05.918Z,98108.58
2023-04-15T22:21:32.958Z,98114.52
2023-04-15T22:24:33.924Z,98114.45
2023-04-15T22:26:46.960Z,98115.54
2023-04-15T22:29:13.798Z,98117.87
2023-04-15T22:31:40.976Z,98119.39
2023-04-15T22:34:08.783Z,98121.02
2023-04-15T22:36:35.761Z,98124.82
2023-04-15T22:39:03.560Z,98123.65
2023-04-15T22:41:31.480Z,98129.48
2023-04-15T22:43:59.044Z,98135.00
2023-04-15T22:46:26.457Z,98141.75
2023-04-15T22:48:54.805Z,98141.89
2023-04-15T22:51:24.236Z,98142.94
2023-04-15T22:53:51.910Z,98142.81
2023-04-15T22:56:21.263Z,98145.13
2023-04-15T22:58:49.399Z,98145.45
2023-04-15T23:01:18.307Z,98150.27
2023-04-15T23:03:56.719Z,98151.98
2023-04-15T23:06:30.112Z,98149.85
2023-04-15T23:08:57.582Z,98152.38
2023-04-15T23:11:25.195Z,98153.27
2023-04-15T23:13:54.409Z,98152.67
2023-04-15T23:16:24.708Z,98158.20
2023-04-15T23:18:51.680Z,98159.89
2023-04-15T23:21:18.517Z,98164.24
2023-04-15T23:23:45.663Z,98164.44
2023-04-15T23:26:12.600Z,98164.29
2023-04-15T23:28:39.462Z,98163.40
2023-04-15T23:31:07.243Z,98162.50
2023-04-15T23:33:34.294Z,98166.49
2023-04-15T23:36:01.608Z,98168.48
2023-04-15T23:38:28.460Z,98171.80
2023-04-15T23:40:55.608Z,98172.58
2023-04-15T23:43:22.785Z,98168.80
2023-04-15T23:45:50.129Z,98170.00
2023-04-15T23:48:17.240Z,98173.73
2023-04-15T23:50:44.204Z,98176.20
2023-04-15T23:53:11.334Z,98175.97
2023-04-15T23:55:38.275Z,98172.94
2023-04-15T23:58:05.114Z,98173.09
